Terminal Aerodrome Forecast
Issued by NWS Wilmington, NC

Home | Current Version | Previous Version | Text Only | Print | Product List | Glossary On
Versions: 1 2 3 4 5 6 7 8 9 10 11 12 13 14 15 16 17
089
FTUS42 KILM 190523
TAFILM
TAF
KILM 190523Z 1906/2006 VRB03KT P6SM SCT250
     FM191400 05006KT P6SM SCT250
     FM191900 10007KT P6SM BKN250=

USA.gov is the U.S. government's official web portal to all federal, state and local government web resources and services.